sensor_id;sensor_type;location;lat;lon;timestamp;temperature;humidity
10451;DHT22;5273;51.290;6.918;2022-11-11T00:00:18;9.40;99.90
10451;DHT22;5273;51.290;6.918;2022-11-11T00:02:44;9.40;99.90
10451;DHT22;5273;51.290;6.918;2022-11-11T00:05:14;9.40;99.90
10451;DHT22;5273;51.290;6.918;2022-11-11T00:07:41;9.40;99.90
10451;DHT22;5273;51.290;6.918;2022-11-11T00:10:08;9.40;99.90
10451;DHT22;5273;51.290;6.918;2022-11-11T00:12:35;9.30;99.90
10451;DHT22;5273;51.290;6.918;2022-11-11T00:15:04;9.30;99.90
10451;DHT22;5273;51.290;6.918;2022-11-11T00:17:32;9.30;99.90
10451;DHT22;5273;51.290;6.918;2022-11-11T00:20:17;9.30;99.90
10451;DHT22;5273;51.290;6.918;2022-11-11T00:23:01;9.30;99.90
10451;DHT22;5273;51.290;6.918;2022-11-11T00:25:49;9.40;99.90
10451;DHT22;5273;51.290;6.918;2022-11-11T00:28:16;9.30;99.90
10451;DHT22;5273;51.290;6.918;2022-11-11T00:30:44;9.30;99.90
10451;DHT22;5273;51.290;6.918;2022-11-11T00:33:11;9.20;99.90
10451;DHT22;5273;51.290;6.918;2022-11-11T00:35:38;9.20;99.90
10451;DHT22;5273;51.290;6.918;2022-11-11T00:38:19;9.20;99.90
10451;DHT22;5273;51.290;6.918;2022-11-11T00:41:04;9.10;99.90
10451;DHT22;5273;51.290;6.918;2022-11-11T00:43:31;9.10;99.90
10451;DHT22;5273;51.290;6.918;2022-11-11T00:45:59;9.30;99.90
10451;DHT22;5273;51.290;6.918;2022-11-11T00:48:40;9.00;99.90
10451;DHT22;5273;51.290;6.918;2022-11-11T00:51:24;9.00;99.90
10451;DHT22;5273;51.290;6.918;2022-11-11T00:53:51;9.00;99.90
10451;DHT22;5273;51.290;6.918;2022-11-11T00:56:17;9.00;99.90
10451;DHT22;5273;51.290;6.918;2022-11-11T00:58:44;9.00;99.90
10451;DHT22;5273;51.290;6.918;2022-11-11T01:01:12;9.20;99.90
10451;DHT22;5273;51.290;6.918;2022-11-11T01:03:39;10.30;99.90
10451;DHT22;5273;51.290;6.918;2022-11-11T01:06:06;8.90;99.90
10451;DHT22;5273;51.290;6.918;2022-11-11T01:08:33;8.90;99.90
10451;DHT22;5273;51.290;6.918;2022-11-11T01:11:00;8.90;99.90
10451;DHT22;5273;51.290;6.918;2022-11-11T01:13:28;8.90;99.90
10451;DHT22;5273;51.290;6.918;2022-11-11T01:15:58;8.90;99.90
10451;DHT22;5273;51.290;6.918;2022-11-11T01:18:27;8.90;99.90
10451;DHT22;5273;51.290;6.918;2022-11-11T01:20:58;9.10;99.90
10451;DHT22;5273;51.290;6.918;2022-11-11T01:23:26;8.90;99.90
10451;DHT22;5273;51.290;6.918;2022-11-11T01:25:52;8.90;99.90
10451;DHT22;5273;51.290;6.918;2022-11-11T01:28:19;8.90;99.90
10451;DHT22;5273;51.290;6.918;2022-11-11T01:30:46;9.00;99.90
10451;DHT22;5273;51.290;6.918;2022-11-11T01:33:13;8.80;99.90
10451;DHT22;5273;51.290;6.918;2022-11-11T01:35:41;8.80;99.90
10451;DHT22;5273;51.290;6.918;2022-11-11T01:38:08;8.80;99.90
10451;DHT22;5273;51.290;6.918;2022-11-11T01:40:42;9.40;99.90
10451;DHT22;5273;51.290;6.918;2022-11-11T01:43:18;8.80;99.90
10451;DHT22;5273;51.290;6.918;2022-11-11T01:45:52;8.80;99.90
10451;DHT22;5273;51.290;6.918;2022-11-11T01:48:25;8.80;99.90
10451;DHT22;5273;51.290;6.918;2022-11-11T01:51:17;8.80;99.90
10451;DHT22;5273;51.290;6.918;2022-11-11T01:53:46;8.80;99.90
10451;DHT22;5273;51.290;6.918;2022-11-11T01:56:14;8.80;99.90
10451;DHT22;5273;51.290;6.918;2022-11-11T01:58:41;8.70;99.90
10451;DHT22;5273;51.290;6.918;2022-11-11T02:01:08;8.70;99.90
10451;DHT22;5273;51.290;6.918;2022-11-11T02:03:39;9.10;99.90
10451;DHT22;5273;51.290;6.918;2022-11-11T02:06:28;8.70;99.90
10451;DHT22;5273;51.290;6.918;2022-11-11T02:08:55;8.60;99.90
10451;DHT22;5273;51.290;6.918;2022-11-11T02:11:23;8.60;99.90
10451;DHT22;5273;51.290;6.918;2022-11-11T02:14:04;8.60;99.90
10451;DHT22;5273;51.290;6.918;2022-11-11T02:16:49;8.60;99.90
10451;DHT22;5273;51.290;6.918;2022-11-11T02:19:22;8.60;99.90
10451;DHT22;5273;51.290;6.918;2022-11-11T02:21:57;8.60;99.90
10451;DHT22;5273;51.290;6.918;2022-11-11T02:24:27;8.50;99.90
10451;DHT22;5273;51.290;6.918;2022-11-11T02:26:57;8.60;99.90
10451;DHT22;5273;51.290;6.918;2022-11-11T02:29:24;8.50;99.90
10451;DHT22;5273;51.290;6.918;2022-11-11T02:31:51;8.50;99.90
10451;DHT22;5273;51.290;6.918;2022-11-11T02:34:18;8.50;99.90
10451;DHT22;5273;51.290;6.918;2022-11-11T02:36:45;8.60;99.90
10451;DHT22;5273;51.290;6.918;2022-11-11T02:39:11;8.50;99.90
10451;DHT22;5273;51.290;6.918;2022-11-11T02:41:46;8.50;99.90
10451;DHT22;5273;51.290;6.918;2022-11-11T02:44:25;8.40;99.90
10451;DHT22;5273;51.290;6.918;2022-11-11T02:46:53;8.40;99.90
10451;DHT22;5273;51.290;6.918;2022-11-11T02:49:19;9.00;99.90
10451;DHT22;5273;51.290;6.918;2022-11-11T02:51:46;8.40;99.90
10451;DHT22;5273;51.290;6.918;2022-11-11T02:54:14;8.40;99.90
10451;DHT22;5273;51.290;6.918;2022-11-11T02:56:42;8.40;99.90
10451;DHT22;5273;51.290;6.918;2022-11-11T02:59:26;8.50;99.90
10451;DHT22;5273;51.290;6.918;2022-11-11T03:01:53;8.40;99.90
10451;DHT22;5273;51.290;6.918;2022-11-11T03:04:19;8.40;99.90
10451;DHT22;5273;51.290;6.918;2022-11-11T03:06:46;8.40;99.90
10451;DHT22;5273;51.290;6.918;2022-11-11T03:09:13;8.30;99.90
10451;DHT22;5273;51.290;6.918;2022-11-11T03:11:42;8.40;99.90
10451;DHT22;5273;51.290;6.918;2022-11-11T03:14:08;8.40;99.90
10451;DHT22;5273;51.290;6.918;2022-11-11T03:16:35;8.40;99.90
10451;DHT22;5273;51.290;6.918;2022-11-11T03:19:20;8.40;99.90
10451;DHT22;5273;51.290;6.918;2022-11-11T03:21:46;8.40;99.90
10451;DHT22;5273;51.290;6.918;2022-11-11T03:24:13;8.30;99.90
10451;DHT22;5273;51.290;6.918;2022-11-11T03:26:41;8.30;99.90
10451;DHT22;5273;51.290;6.918;2022-11-11T03:29:07;8.30;99.90
10451;DHT22;5273;51.290;6.918;2022-11-11T03:31:34;8.30;99.90
10451;DHT22;5273;51.290;6.918;2022-11-11T03:34:02;8.30;99.90
10451;DHT22;5273;51.290;6.918;2022-11-11T03:36:55;8.30;99.90
10451;DHT22;5273;51.290;6.918;2022-11-11T03:39:40;8.20;99.90
10451;DHT22;5273;51.290;6.918;2022-11-11T03:42:06;8.30;99.90
10451;DHT22;5273;51.290;6.918;2022-11-11T03:44:33;8.30;99.90
10451;DHT22;5273;51.290;6.918;2022-11-11T03:47:00;8.20;99.90
10451;DHT22;5273;51.290;6.918;2022-11-11T03:49:27;8.20;99.90
10451;DHT22;5273;51.290;6.918;2022-11-11T03:51:53;8.20;99.90
10451;DHT22;5273;51.290;6.918;2022-11-11T03:54:21;8.20;99.90
10451;DHT22;5273;51.290;6.918;2022-11-11T03:56:48;8.20;99.90
10451;DHT22;5273;51.290;6.918;2022-11-11T03:59:15;8.20;99.90
10451;DHT22;5273;51.290;6.918;2022-11-11T04:01:42;8.20;99.90
10451;DHT22;5273;51.290;6.918;2022-11-11T04:04:26;8.10;99.90
10451;DHT22;5273;51.290;6.918;2022-11-11T04:07:25;8.20;99.90
10451;DHT22;5273;51.290;6.918;2022-11-11T04:10:12;8.20;99.90
10451;DHT22;5273;51.290;6.918;2022-11-11T04:12:48;8.20;99.90
10451;DHT22;5273;51.290;6.918;2022-11-11T04:15:32;8.20;99.90
10451;DHT22;5273;51.290;6.918;2022-11-11T04:18:16;8.20;99.90
10451;DHT22;5273;51.290;6.918;2022-11-11T04:21:03;8.20;99.90
10451;DHT22;5273;51.290;6.918;2022-11-11T04:23:47;8.20;99.90
10451;DHT22;5273;51.290;6.918;2022-11-11T04:26:15;8.20;99.90
10451;DHT22;5273;51.290;6.918;2022-11-11T04:28:41;8.20;99.90
10451;DHT22;5273;51.290;6.918;2022-11-11T04:31:25;8.20;99.90
10451;DHT22;5273;51.290;6.918;2022-11-11T04:33:52;8.20;99.90
10451;DHT22;5273;51.290;6.918;2022-11-11T04:36:18;8.20;99.90
10451;DHT22;5273;51.290;6.918;2022-11-11T04:38:45;8.20;99.90
10451;DHT22;5273;51.290;6.918;2022-11-11T04:41:36;8.20;99.90
10451;DHT22;5273;51.290;6.918;2022-11-11T04:44:03;8.20;99.90
10451;DHT22;5273;51.290;6.918;2022-11-11T04:46:48;8.20;99.90
10451;DHT22;5273;51.290;6.918;2022-11-11T04:49:14;8.20;99.90
10451;DHT22;5273;51.290;6.918;2022-11-11T04:51:41;8.20;99.90
10451;DHT22;5273;51.290;6.918;2022-11-11T04:54:25;7.60;99.90
10451;DHT22;5273;51.290;6.918;2022-11-11T04:56:53;8.10;99.90
10451;DHT22;5273;51.290;6.918;2022-11-11T04:59:19;8.10;99.90
10451;DHT22;5273;51.290;6.918;2022-11-11T05:01:46;8.10;99.90
10451;DHT22;5273;51.290;6.918;2022-11-11T05:04:30;8.10;99.90
10451;DHT22;5273;51.290;6.918;2022-11-11T05:06:57;8.10;99.90
10451;DHT22;5273;51.290;6.918;2022-11-11T05:09:41;8.10;99.90
10451;DHT22;5273;51.290;6.918;2022-11-11T05:12:09;8.20;99.90
10451;DHT22;5273;51.290;6.918;2022-11-11T05:14:36;8.10;99.90
10451;DHT22;5273;51.290;6.918;2022-11-11T05:17:22;8.10;99.90
10451;DHT22;5273;51.290;6.918;2022-11-11T05:20:09;8.00;99.90
10451;DHT22;5273;51.290;6.918;2022-11-11T05:22:53;8.10;99.90
10451;DHT22;5273;51.290;6.918;2022-11-11T05:25:20;8.10;99.90
10451;DHT22;5273;51.290;6.918;2022-11-11T05:27:56;8.10;99.90
10451;DHT22;5273;51.290;6.918;2022-11-11T05:30:23;8.10;99.90
10451;DHT22;5273;51.290;6.918;2022-11-11T05:32:52;8.10;99.90
10451;DHT22;5273;51.290;6.918;2022-11-11T05:35:20;8.10;99.90
10451;DHT22;5273;51.290;6.918;2022-11-11T05:37:46;8.10;99.90
10451;DHT22;5273;51.290;6.918;2022-11-11T05:40:34;8.10;99.90
10451;DHT22;5273;51.290;6.918;2022-11-11T05:43:02;8.10;99.90
10451;DHT22;5273;51.290;6.918;2022-11-11T05:45:29;8.00;99.90
10451;DHT22;5273;51.290;6.918;2022-11-11T05:48:00;8.00;99.90
10451;DHT22;5273;51.290;6.918;2022-11-11T05:50:27;8.00;99.90
10451;DHT22;5273;51.290;6.918;2022-11-11T05:52:54;8.00;99.90
10451;DHT22;5273;51.290;6.918;2022-11-11T05:55:21;8.00;99.90
10451;DHT22;5273;51.290;6.918;2022-11-11T05:57:48;8.00;99.90
10451;DHT22;5273;51.290;6.918;2022-11-11T06:00:17;8.00;99.90
10451;DHT22;5273;51.290;6.918;2022-11-11T06:02:44;8.00;99.90
10451;DHT22;5273;51.290;6.918;2022-11-11T06:05:10;8.00;99.90
10451;DHT22;5273;51.290;6.918;2022-11-11T06:07:37;8.00;99.90
10451;DHT22;5273;51.290;6.918;2022-11-11T06:10:06;8.00;99.90
10451;DHT22;5273;51.290;6.918;2022-11-11T06:12:49;8.00;99.90
10451;DHT22;5273;51.290;6.918;2022-11-11T06:15:34;8.00;99.90
10451;DHT22;5273;51.290;6.918;2022-11-11T06:18:01;8.00;99.90
10451;DHT22;5273;51.290;6.918;2022-11-11T06:20:28;8.00;99.90
10451;DHT22;5273;51.290;6.918;2022-11-11T06:22:55;8.00;99.90
10451;DHT22;5273;51.290;6.918;2022-11-11T06:25:23;8.10;99.90
10451;DHT22;5273;51.290;6.918;2022-11-11T06:28:06;8.00;99.90
10451;DHT22;5273;51.290;6.918;2022-11-11T06:30:34;8.00;99.90
10451;DHT22;5273;51.290;6.918;2022-11-11T06:33:01;8.00;99.90
10451;DHT22;5273;51.290;6.918;2022-11-11T06:35:28;8.00;99.90
10451;DHT22;5273;51.290;6.918;2022-11-11T06:37:54;8.00;99.90
10451;DHT22;5273;51.290;6.918;2022-11-11T06:40:21;8.00;99.90
10451;DHT22;5273;51.290;6.918;2022-11-11T06:42:49;8.00;99.90
10451;DHT22;5273;51.290;6.918;2022-11-11T06:45:16;7.90;99.90
10451;DHT22;5273;51.290;6.918;2022-11-11T06:47:44;8.00;99.90
10451;DHT22;5273;51.290;6.918;2022-11-11T06:50:11;8.00;99.90
10451;DHT22;5273;51.290;6.918;2022-11-11T06:52:38;8.00;99.90
10451;DHT22;5273;51.290;6.918;2022-11-11T06:55:05;8.00;99.90
10451;DHT22;5273;51.290;6.918;2022-11-11T06:57:33;8.00;99.90
10451;DHT22;5273;51.290;6.918;2022-11-11T06:59:59;8.00;99.90
10451;DHT22;5273;51.290;6.918;2022-11-11T07:02:26;8.00;99.90
10451;DHT22;5273;51.290;6.918;2022-11-11T07:04:54;8.10;99.90
10451;DHT22;5273;51.290;6.918;2022-11-11T07:07:21;8.10;99.90
10451;DHT22;5273;51.290;6.918;2022-11-11T07:09:48;8.20;99.90
10451;DHT22;5273;51.290;6.918;2022-11-11T07:12:15;8.20;99.90
10451;DHT22;5273;51.290;6.918;2022-11-11T07:14:42;8.00;99.90
10451;DHT22;5273;51.290;6.918;2022-11-11T07:17:09;8.40;99.90
10451;DHT22;5273;51.290;6.918;2022-11-11T07:19:36;8.40;99.90
10451;DHT22;5273;51.290;6.918;2022-11-11T07:22:04;8.50;99.90
10451;DHT22;5273;51.290;6.918;2022-11-11T07:24:30;8.60;99.90
10451;DHT22;5273;51.290;6.918;2022-11-11T07:26:57;8.60;99.90
10451;DHT22;5273;51.290;6.918;2022-11-11T07:29:26;9.00;99.90
10451;DHT22;5273;51.290;6.918;2022-11-11T07:31:53;8.80;99.90
10451;DHT22;5273;51.290;6.918;2022-11-11T07:34:20;9.00;99.90
10451;DHT22;5273;51.290;6.918;2022-11-11T07:36:47;9.20;99.90
10451;DHT22;5273;51.290;6.918;2022-11-11T07:39:15;9.30;99.90
10451;DHT22;5273;51.290;6.918;2022-11-11T07:41:42;9.40;99.90
10451;DHT22;5273;51.290;6.918;2022-11-11T07:44:09;9.50;99.90
10451;DHT22;5273;51.290;6.918;2022-11-11T07:46:35;9.60;99.90
10451;DHT22;5273;51.290;6.918;2022-11-11T07:49:02;9.60;99.90
10451;DHT22;5273;51.290;6.918;2022-11-11T07:51:29;9.70;99.90
10451;DHT22;5273;51.290;6.918;2022-11-11T07:53:56;9.90;99.90
10451;DHT22;5273;51.290;6.918;2022-11-11T07:56:24;9.90;99.90
10451;DHT22;5273;51.290;6.918;2022-11-11T07:58:51;10.00;99.90
10451;DHT22;5273;51.290;6.918;2022-11-11T08:01:17;10.10;99.90
10451;DHT22;5273;51.290;6.918;2022-11-11T08:03:44;10.20;99.90
10451;DHT22;5273;51.290;6.918;2022-11-11T08:06:15;10.30;99.90
10451;DHT22;5273;51.290;6.918;2022-11-11T08:08:42;10.50;99.90
10451;DHT22;5273;51.290;6.918;2022-11-11T08:11:09;10.60;99.90
10451;DHT22;5273;51.290;6.918;2022-11-11T08:13:37;10.80;99.90
10451;DHT22;5273;51.290;6.918;2022-11-11T08:16:06;10.90;99.90
10451;DHT22;5273;51.290;6.918;2022-11-11T08:18:33;11.10;99.90
10451;DHT22;5273;51.290;6.918;2022-11-11T08:21:00;11.30;99.90
10451;DHT22;5273;51.290;6.918;2022-11-11T08:23:28;11.50;99.90
10451;DHT22;5273;51.290;6.918;2022-11-11T08:25:58;11.70;99.90
10451;DHT22;5273;51.290;6.918;2022-11-11T08:28:25;12.00;99.90
10451;DHT22;5273;51.290;6.918;2022-11-11T08:30:54;12.40;99.90
10451;DHT22;5273;51.290;6.918;2022-11-11T08:33:21;12.60;99.80
10451;DHT22;5273;51.290;6.918;2022-11-11T08:35:48;12.60;98.90
10451;DHT22;5273;51.290;6.918;2022-11-11T08:38:15;12.60;99.10
10451;DHT22;5273;51.290;6.918;2022-11-11T08:40:41;12.80;99.20
10451;DHT22;5273;51.290;6.918;2022-11-11T08:43:08;13.00;99.20
10451;DHT22;5273;51.290;6.918;2022-11-11T08:45:35;13.40;97.80
10451;DHT22;5273;51.290;6.918;2022-11-11T08:48:04;13.70;97.60
10451;DHT22;5273;51.290;6.918;2022-11-11T08:50:31;13.90;96.60
10451;DHT22;5273;51.290;6.918;2022-11-11T08:52:57;14.20;96.00
10451;DHT22;5273;51.290;6.918;2022-11-11T08:55:24;14.10;95.30
10451;DHT22;5273;51.290;6.918;2022-11-11T08:57:56;14.20;95.30
10451;DHT22;5273;51.290;6.918;2022-11-11T09:00:23;14.20;94.70
10451;DHT22;5273;51.290;6.918;2022-11-11T09:02:51;14.20;94.90
10451;DHT22;5273;51.290;6.918;2022-11-11T09:05:19;14.30;95.10
10451;DHT22;5273;51.290;6.918;2022-11-11T09:07:46;14.60;93.80
10451;DHT22;5273;51.290;6.918;2022-11-11T09:10:13;14.70;93.90
10451;DHT22;5273;51.290;6.918;2022-11-11T09:12:39;14.90;93.90
10451;DHT22;5273;51.290;6.918;2022-11-11T09:15:06;15.10;92.80
10451;DHT22;5273;51.290;6.918;2022-11-11T09:17:33;15.40;93.00
10451;DHT22;5273;51.290;6.918;2022-11-11T09:20:00;15.80;92.20
10451;DHT22;5273;51.290;6.918;2022-11-11T09:22:28;16.20;91.20
10451;DHT22;5273;51.290;6.918;2022-11-11T09:24:55;16.60;89.70
10451;DHT22;5273;51.290;6.918;2022-11-11T09:27:22;16.80;87.70
10451;DHT22;5273;51.290;6.918;2022-11-11T09:29:49;16.70;87.50
10451;DHT22;5273;51.290;6.918;2022-11-11T09:32:15;16.70;87.70
10451;DHT22;5273;51.290;6.918;2022-11-11T09:34:42;16.80;88.30
10451;DHT22;5273;51.290;6.918;2022-11-11T09:37:09;17.10;86.40
10451;DHT22;5273;51.290;6.918;2022-11-11T09:39:38;17.40;84.30
10451;DHT22;5273;51.290;6.918;2022-11-11T09:42:12;17.60;83.80
10451;DHT22;5273;51.290;6.918;2022-11-11T09:47:40;18.10;80.50
10451;DHT22;5273;51.290;6.918;2022-11-11T09:50:13;18.20;78.30
10451;DHT22;5273;51.290;6.918;2022-11-11T09:52:45;18.20;78.30
10451;DHT22;5273;51.290;6.918;2022-11-11T09:55:17;18.20;78.50
10451;DHT22;5273;51.290;6.918;2022-11-11T09:57:48;18.10;78.70
10451;DHT22;5273;51.290;6.918;2022-11-11T10:00:19;18.00;77.90
10451;DHT22;5273;51.290;6.918;2022-11-11T10:02:50;18.10;77.70
10451;DHT22;5273;51.290;6.918;2022-11-11T10:05:21;18.40;78.80
10451;DHT22;5273;51.290;6.918;2022-11-11T10:07:52;18.80;75.50
10451;DHT22;5273;51.290;6.918;2022-11-11T10:10:27;19.10;74.00
10451;DHT22;5273;51.290;6.918;2022-11-11T10:12:57;19.20;73.00
10451;DHT22;5273;51.290;6.918;2022-11-11T10:15:39;19.50;73.00
10451;DHT22;5273;51.290;6.918;2022-11-11T10:18:28;19.90;72.10
10451;DHT22;5273;51.290;6.918;2022-11-11T10:21:00;20.60;69.60
10451;DHT22;5273;51.290;6.918;2022-11-11T10:23:32;21.10;69.00
10451;DHT22;5273;51.290;6.918;2022-11-11T10:26:06;21.30;64.20
10451;DHT22;5273;51.290;6.918;2022-11-11T10:28:36;21.40;63.10
10451;DHT22;5273;51.290;6.918;2022-11-11T10:31:09;21.60;61.50
10451;DHT22;5273;51.290;6.918;2022-11-11T10:33:44;21.70;61.80
10451;DHT22;5273;51.290;6.918;2022-11-11T10:36:15;21.90;58.90
10451;DHT22;5273;51.290;6.918;2022-11-11T10:38:48;22.00;60.10
10451;DHT22;5273;51.290;6.918;2022-11-11T10:41:20;21.90;59.60
10451;DHT22;5273;51.290;6.918;2022-11-11T10:43:49;22.20;59.50
10451;DHT22;5273;51.290;6.918;2022-11-11T10:46:19;22.50;57.90
10451;DHT22;5273;51.290;6.918;2022-11-11T10:48:52;22.60;57.50
10451;DHT22;5273;51.290;6.918;2022-11-11T10:51:22;22.40;56.40
10451;DHT22;5273;51.290;6.918;2022-11-11T10:53:57;22.30;57.50
10451;DHT22;5273;51.290;6.918;2022-11-11T10:56:33;21.80;57.10
10451;DHT22;5273;51.290;6.918;2022-11-11T10:59:08;21.10;58.60
10451;DHT22;5273;51.290;6.918;2022-11-11T11:01:39;20.30;60.00
10451;DHT22;5273;51.290;6.918;2022-11-11T11:04:13;19.70;62.30
10451;DHT22;5273;51.290;6.918;2022-11-11T11:06:43;19.10;63.80
10451;DHT22;5273;51.290;6.918;2022-11-11T11:09:14;18.50;65.20
10451;DHT22;5273;51.290;6.918;2022-11-11T11:11:49;18.30;67.30
10451;DHT22;5273;51.290;6.918;2022-11-11T11:14:20;18.00;67.40
10451;DHT22;5273;51.290;6.918;2022-11-11T11:16:51;17.60;69.60
10451;DHT22;5273;51.290;6.918;2022-11-11T11:19:22;17.30;70.30
10451;DHT22;5273;51.290;6.918;2022-11-11T11:21:54;17.20;71.30
10451;DHT22;5273;51.290;6.918;2022-11-11T11:24:23;17.00;72.50
10451;DHT22;5273;51.290;6.918;2022-11-11T11:26:53;16.80;75.10
10451;DHT22;5273;51.290;6.918;2022-11-11T11:29:28;16.80;76.10
10451;DHT22;5273;51.290;6.918;2022-11-11T11:32:11;16.90;75.90
10451;DHT22;5273;51.290;6.918;2022-11-11T11:34:43;17.00;75.40
10451;DHT22;5273;51.290;6.918;2022-11-11T11:37:11;16.80;76.70
10451;DHT22;5273;51.290;6.918;2022-11-11T11:39:39;16.80;77.60
10451;DHT22;5273;51.290;6.918;2022-11-11T11:42:07;16.80;77.50
10451;DHT22;5273;51.290;6.918;2022-11-11T11:44:36;16.70;77.30
10451;DHT22;5273;51.290;6.918;2022-11-11T11:47:13;16.70;76.70
10451;DHT22;5273;51.290;6.918;2022-11-11T11:49:58;16.50;77.20
10451;DHT22;5273;51.290;6.918;2022-11-11T11:52:37;16.40;78.60
10451;DHT22;5273;51.290;6.918;2022-11-11T11:55:14;16.40;79.00
10451;DHT22;5273;51.290;6.918;2022-11-11T11:57:52;16.40;76.90
10451;DHT22;5273;51.290;6.918;2022-11-11T12:00:22;16.30;78.60
10451;DHT22;5273;51.290;6.918;2022-11-11T12:03:12;16.20;78.80
10451;DHT22;5273;51.290;6.918;2022-11-11T12:05:44;16.10;79.60
10451;DHT22;5273;51.290;6.918;2022-11-11T12:08:31;16.00;80.80
10451;DHT22;5273;51.290;6.918;2022-11-11T12:11:06;15.90;80.60
10451;DHT22;5273;51.290;6.918;2022-11-11T12:13:44;15.80;81.30
10451;DHT22;5273;51.290;6.918;2022-11-11T12:16:23;15.70;82.70
10451;DHT22;5273;51.290;6.918;2022-11-11T12:19:05;15.70;80.90
10451;DHT22;5273;51.290;6.918;2022-11-11T12:21:41;15.70;81.50
10451;DHT22;5273;51.290;6.918;2022-11-11T12:24:26;15.70;81.00
10451;DHT22;5273;51.290;6.918;2022-11-11T12:27:02;15.60;81.50
10451;DHT22;5273;51.290;6.918;2022-11-11T12:29:41;15.60;83.00
10451;DHT22;5273;51.290;6.918;2022-11-11T12:32:44;15.60;82.50
10451;DHT22;5273;51.290;6.918;2022-11-11T12:35:41;15.60;82.10
10451;DHT22;5273;51.290;6.918;2022-11-11T12:38:33;15.60;83.10
10451;DHT22;5273;51.290;6.918;2022-11-11T12:41:10;16.00;83.80
10451;DHT22;5273;51.290;6.918;2022-11-11T12:43:46;15.50;84.40
10451;DHT22;5273;51.290;6.918;2022-11-11T12:46:27;15.50;84.70
10451;DHT22;5273;51.290;6.918;2022-11-11T12:49:04;15.50;84.00
10451;DHT22;5273;51.290;6.918;2022-11-11T12:51:45;15.40;84.20
10451;DHT22;5273;51.290;6.918;2022-11-11T12:54:25;15.20;85.70
10451;DHT22;5273;51.290;6.918;2022-11-11T12:57:01;15.20;85.80
10451;DHT22;5273;51.290;6.918;2022-11-11T12:59:53;15.20;86.00
10451;DHT22;5273;51.290;6.918;2022-11-11T13:02:56;15.10;86.80
10451;DHT22;5273;51.290;6.918;2022-11-11T13:05:28;15.10;87.40
10451;DHT22;5273;51.290;6.918;2022-11-11T13:08:25;15.10;88.60
10451;DHT22;5273;51.290;6.918;2022-11-11T13:11:00;15.10;88.70
10451;DHT22;5273;51.290;6.918;2022-11-11T13:13:44;15.10;88.20
10451;DHT22;5273;51.290;6.918;2022-11-11T13:16:15;15.10;88.30
10451;DHT22;5273;51.290;6.918;2022-11-11T13:18:50;15.10;89.50
10451;DHT22;5273;51.290;6.918;2022-11-11T13:21:23;15.10;89.10
10451;DHT22;5273;51.290;6.918;2022-11-11T13:23:51;15.10;88.50
10451;DHT22;5273;51.290;6.918;2022-11-11T13:26:26;15.00;89.00
10451;DHT22;5273;51.290;6.918;2022-11-11T13:29:04;15.00;89.70
10451;DHT22;5273;51.290;6.918;2022-11-11T13:31:35;15.10;90.30
10451;DHT22;5273;51.290;6.918;2022-11-11T13:34:05;15.10;89.80
10451;DHT22;5273;51.290;6.918;2022-11-11T13:36:42;15.10;90.00
10451;DHT22;5273;51.290;6.918;2022-11-11T13:39:22;15.20;90.00
10451;DHT22;5273;51.290;6.918;2022-11-11T13:41:53;15.10;89.80
10451;DHT22;5273;51.290;6.918;2022-11-11T13:44:24;15.10;90.10
10451;DHT22;5273;51.290;6.918;2022-11-11T13:46:59;15.10;90.60
10451;DHT22;5273;51.290;6.918;2022-11-11T13:49:33;15.20;90.00
10451;DHT22;5273;51.290;6.918;2022-11-11T13:52:01;15.10;89.70
10451;DHT22;5273;51.290;6.918;2022-11-11T13:54:30;15.10;90.40
10451;DHT22;5273;51.290;6.918;2022-11-11T13:57:06;15.10;90.60
10451;DHT22;5273;51.290;6.918;2022-11-11T13:59:37;15.10;90.20
10451;DHT22;5273;51.290;6.918;2022-11-11T14:02:27;15.10;90.30
10451;DHT22;5273;51.290;6.918;2022-11-11T14:05:22;15.10;89.80
10451;DHT22;5273;51.290;6.918;2022-11-11T14:07:55;15.10;90.00
10451;DHT22;5273;51.290;6.918;2022-11-11T14:10:56;15.00;89.90
10451;DHT22;5273;51.290;6.918;2022-11-11T14:13:40;14.90;89.90
10451;DHT22;5273;51.290;6.918;2022-11-11T14:16:10;14.90;90.00
10451;DHT22;5273;51.290;6.918;2022-11-11T14:18:44;14.80;90.00
10451;DHT22;5273;51.290;6.918;2022-11-11T14:21:42;14.80;89.70
10451;DHT22;5273;51.290;6.918;2022-11-11T14:24:09;14.80;90.70
10451;DHT22;5273;51.290;6.918;2022-11-11T14:26:36;14.80;90.60
10451;DHT22;5273;51.290;6.918;2022-11-11T14:29:03;14.80;90.70
10451;DHT22;5273;51.290;6.918;2022-11-11T14:32:06;14.80;90.90
10451;DHT22;5273;51.290;6.918;2022-11-11T14:34:53;14.70;90.80
10451;DHT22;5273;51.290;6.918;2022-11-11T14:37:37;14.70;91.20
10451;DHT22;5273;51.290;6.918;2022-11-11T14:40:09;14.70;91.00
10451;DHT22;5273;51.290;6.918;2022-11-11T14:42:44;14.80;91.40
10451;DHT22;5273;51.290;6.918;2022-11-11T14:48:51;14.70;91.30
10451;DHT22;5273;51.290;6.918;2022-11-11T14:51:37;14.70;91.60
10451;DHT22;5273;51.290;6.918;2022-11-11T14:54:24;14.70;91.30
10451;DHT22;5273;51.290;6.918;2022-11-11T14:56:57;14.70;91.40
10451;DHT22;5273;51.290;6.918;2022-11-11T14:59:28;14.60;91.10
10451;DHT22;5273;51.290;6.918;2022-11-11T15:01:57;14.60;91.40
10451;DHT22;5273;51.290;6.918;2022-11-11T15:04:25;14.20;90.90
10451;DHT22;5273;51.290;6.918;2022-11-11T15:06:56;14.40;91.10
10451;DHT22;5273;51.290;6.918;2022-11-11T15:09:46;14.40;91.50
10451;DHT22;5273;51.290;6.918;2022-11-11T15:12:23;14.30;91.50
10451;DHT22;5273;51.290;6.918;2022-11-11T15:14:58;14.20;91.50
10451;DHT22;5273;51.290;6.918;2022-11-11T15:17:34;14.10;91.80
10451;DHT22;5273;51.290;6.918;2022-11-11T15:20:18;14.10;91.90
10451;DHT22;5273;51.290;6.918;2022-11-11T15:22:54;14.00;92.00
10451;DHT22;5273;51.290;6.918;2022-11-11T15:25:32;13.90;92.10
10451;DHT22;5273;51.290;6.918;2022-11-11T15:28:04;14.00;92.20
10451;DHT22;5273;51.290;6.918;2022-11-11T15:30:52;13.80;92.20
10451;DHT22;5273;51.290;6.918;2022-11-11T15:33:27;13.70;92.40
10451;DHT22;5273;51.290;6.918;2022-11-11T15:36:04;13.60;92.50
10451;DHT22;5273;51.290;6.918;2022-11-11T15:38:32;13.60;92.70
10451;DHT22;5273;51.290;6.918;2022-11-11T15:41:00;13.60;92.80
10451;DHT22;5273;51.290;6.918;2022-11-11T15:43:29;13.60;92.90
10451;DHT22;5273;51.290;6.918;2022-11-11T15:45:59;13.40;93.10
10451;DHT22;5273;51.290;6.918;2022-11-11T15:48:29;13.40;93.40
10451;DHT22;5273;51.290;6.918;2022-11-11T15:51:00;13.30;93.50
10451;DHT22;5273;51.290;6.918;2022-11-11T15:53:40;13.20;93.60
10451;DHT22;5273;51.290;6.918;2022-11-11T15:56:08;13.20;93.80
10451;DHT22;5273;51.290;6.918;2022-11-11T15:58:35;13.10;93.90
10451;DHT22;5273;51.290;6.918;2022-11-11T16:01:05;13.10;93.90
10451;DHT22;5273;51.290;6.918;2022-11-11T16:03:34;13.10;93.90
10451;DHT22;5273;51.290;6.918;2022-11-11T16:06:08;13.00;94.00
10451;DHT22;5273;51.290;6.918;2022-11-11T16:08:36;12.90;94.00
10451;DHT22;5273;51.290;6.918;2022-11-11T16:11:12;12.90;94.00
10451;DHT22;5273;51.290;6.918;2022-11-11T16:13:41;12.90;94.00
10451;DHT22;5273;51.290;6.918;2022-11-11T16:16:13;12.80;93.90
10451;DHT22;5273;51.290;6.918;2022-11-11T16:18:46;12.90;94.00
10451;DHT22;5273;51.290;6.918;2022-11-11T16:21:18;12.70;93.90
10451;DHT22;5273;51.290;6.918;2022-11-11T16:23:47;12.70;94.00
10451;DHT22;5273;51.290;6.918;2022-11-11T16:26:16;12.60;94.00
10451;DHT22;5273;51.290;6.918;2022-11-11T16:28:47;12.60;93.90
10451;DHT22;5273;51.290;6.918;2022-11-11T16:31:30;12.60;93.90
10451;DHT22;5273;51.290;6.918;2022-11-11T16:37:06;12.50;93.80